createdAt,value
2018-07-26T00:08:44.817Z,3.22
2018-07-26T00:11:17.235Z,3.60
2018-07-26T00:16:32.113Z,3.65
2018-07-26T00:19:06.111Z,3.60
2018-07-26T00:21:38.498Z,3.22
2018-07-26T00:24:23.205Z,3.30
2018-07-26T00:27:00.459Z,3.37
2018-07-26T00:29:38.990Z,3.50
2018-07-26T00:32:12.145Z,3.52
2018-07-26T00:34:46.702Z,3.65
2018-07-26T00:40:16.506Z,3.62
2018-07-26T00:42:48.080Z,3.70
2018-07-26T00:45:23.505Z,3.77
2018-07-26T00:48:03.745Z,3.80
2018-07-26T00:50:36.419Z,3.58
2018-07-26T00:53:10.217Z,3.72
2018-07-26T00:55:41.675Z,3.40
2018-07-26T00:58:11.353Z,3.52
2018-07-26T01:00:41.838Z,3.60
2018-07-26T01:03:12.885Z,3.40
2018-07-26T01:05:54.571Z,3.37
2018-07-26T01:08:45.299Z,3.12
2018-07-26T01:11:32.169Z,3.40
2018-07-26T01:14:03.556Z,3.45
2018-07-26T01:16:35.669Z,3.25
2018-07-26T01:19:09.795Z,3.12
2018-07-26T01:21:41.157Z,3.62
2018-07-26T01:24:17.541Z,3.42
2018-07-26T01:26:57.161Z,3.40
2018-07-26T01:29:30.080Z,3.58
2018-07-26T01:32:03.083Z,3.80
2018-07-26T01:34:37.753Z,3.45
2018-07-26T01:37:08.863Z,3.70
2018-07-26T01:39:39.861Z,3.70
2018-07-26T01:42:17.625Z,3.92
2018-07-26T01:44:48.523Z,3.35
2018-07-26T01:47:19.255Z,3.60
2018-07-26T01:49:53.719Z,3.65
2018-07-26T01:52:24.897Z,3.62
2018-07-26T01:54:56.837Z,3.72
2018-07-26T01:57:37.527Z,3.47
2018-07-26T02:00:08.277Z,3.50
2018-07-26T02:02:38.143Z,3.50
2018-07-26T02:05:10.514Z,3.70
2018-07-26T02:07:40.227Z,3.45
2018-07-26T02:10:10.864Z,3.80
2018-07-26T02:12:40.429Z,3.55
2018-07-26T02:15:09.207Z,3.62
2018-07-26T02:17:45.974Z,3.90
2018-07-26T02:20:24.872Z,3.70
2018-07-26T02:23:04.835Z,3.80
2018-07-26T02:25:35.874Z,3.90
2018-07-26T02:28:10.927Z,3.92
2018-07-26T02:30:41.664Z,3.55
2018-07-26T02:36:06.125Z,3.33
2018-07-26T02:38:42.809Z,3.35
2018-07-26T02:43:54.037Z,3.45
2018-07-26T02:46:23.822Z,3.75
2018-07-26T02:54:42.146Z,3.50
2018-07-26T02:57:20.111Z,3.83
2018-07-26T02:59:48.727Z,3.42
2018-07-26T03:02:17.489Z,3.98
2018-07-26T03:04:48.857Z,3.85
2018-07-26T03:07:28.926Z,3.35
2018-07-26T03:09:58.238Z,3.58
2018-07-26T03:12:30.145Z,3.30
2018-07-26T03:15:00.043Z,3.70
2018-07-26T03:17:35.538Z,3.83
2018-07-26T03:20:06.449Z,3.33
2018-07-26T03:22:36.503Z,3.45
2018-07-26T03:25:06.321Z,3.75
2018-07-26T03:27:36.236Z,3.70
2018-07-26T03:30:05.465Z,6.20
2018-07-26T03:32:36.553Z,7.75
2018-07-26T03:35:07.985Z,4.87
2018-07-26T03:37:38.760Z,4.37
2018-07-26T03:40:08.294Z,5.40
2018-07-26T03:42:42.842Z,4.35
2018-07-26T03:45:13.703Z,3.77
2018-07-26T03:47:58.209Z,3.70
2018-07-26T03:50:28.749Z,4.40
2018-07-26T03:52:59.221Z,3.72
2018-07-26T03:55:29.761Z,4.00
2018-07-26T03:58:09.345Z,4.20
2018-07-26T04:00:42.386Z,4.00
2018-07-26T04:03:12.355Z,3.95
2018-07-26T04:05:41.260Z,4.30
2018-07-26T04:08:15.289Z,3.70
2018-07-26T04:10:45.057Z,4.17
2018-07-26T04:13:15.043Z,4.15
2018-07-26T04:15:47.930Z,3.98
2018-07-26T04:18:26.437Z,4.10
2018-07-26T04:21:00.260Z,4.20
2018-07-26T04:23:29.451Z,4.10
2018-07-26T04:25:58.306Z,4.45
2018-07-26T04:28:27.101Z,4.62
2018-07-26T04:30:55.900Z,4.45
2018-07-26T04:33:24.530Z,4.30
2018-07-26T04:35:53.912Z,3.85
2018-07-26T04:38:22.637Z,3.87
2018-07-26T04:40:52.729Z,4.00
2018-07-26T04:43:24.806Z,3.80
2018-07-26T04:46:01.991Z,4.20
2018-07-26T04:48:41.338Z,4.40
2018-07-26T04:51:13.385Z,5.03
2018-07-26T04:53:43.753Z,4.22
2018-07-26T04:56:12.658Z,4.62
2018-07-26T04:58:47.577Z,4.50
2018-07-26T05:01:17.202Z,4.40
2018-07-26T05:03:48.993Z,4.35
2018-07-26T05:06:17.847Z,4.53
2018-07-26T05:09:00.449Z,4.78
2018-07-26T05:11:30.073Z,4.20
2018-07-26T05:14:00.192Z,4.65
2018-07-26T05:16:29.231Z,4.05
2018-07-26T05:18:58.739Z,4.60
2018-07-26T05:21:29.402Z,5.37
2018-07-26T05:24:04.307Z,4.60
2018-07-26T05:26:38.991Z,4.53
2018-07-26T05:29:27.481Z,4.40
2018-07-26T05:31:58.826Z,4.62
2018-07-26T05:34:29.780Z,4.83
2018-07-26T05:37:04.837Z,4.35
2018-07-26T05:42:31.888Z,4.20
2018-07-26T05:45:03.578Z,4.80
2018-07-26T05:47:54.810Z,4.37
2018-07-26T05:50:26.585Z,4.87
2018-07-26T05:52:56.317Z,5.42
2018-07-26T05:55:25.713Z,4.78
2018-07-26T05:57:55.099Z,4.85
2018-07-26T06:00:23.893Z,5.00
2018-07-26T06:02:52.568Z,8.45
2018-07-26T06:05:21.297Z,5.55
2018-07-26T06:07:51.228Z,5.30
2018-07-26T06:10:20.040Z,5.12
2018-07-26T06:12:48.659Z,5.55
2018-07-26T06:15:17.345Z,5.37
2018-07-26T06:17:51.177Z,6.03
2018-07-26T06:20:20.165Z,6.33
2018-07-26T06:22:50.212Z,6.85
2018-07-26T06:28:14.497Z,5.50
2018-07-26T06:30:45.537Z,5.10
2018-07-26T06:33:16.398Z,4.80
2018-07-26T06:35:52.518Z,4.65
2018-07-26T06:41:13.861Z,8.33
2018-07-26T06:43:43.453Z,5.47
2018-07-26T06:46:14.403Z,5.17
2018-07-26T06:48:47.771Z,4.72
2018-07-26T06:51:16.736Z,4.40
2018-07-26T06:53:48.139Z,4.65
2018-07-26T06:56:18.090Z,5.08
2018-07-26T06:58:46.869Z,5.25
2018-07-26T07:01:16.208Z,5.42
2018-07-26T07:03:45.795Z,4.17
2018-07-26T07:06:16.048Z,4.20
2018-07-26T07:08:45.479Z,4.10
2018-07-26T07:11:14.922Z,5.12
2018-07-26T07:13:46.329Z,5.20
2018-07-26T07:16:17.465Z,4.42
2018-07-26T07:18:47.509Z,3.98
2018-07-26T07:21:18.191Z,3.90
2018-07-26T07:23:53.776Z,3.90
2018-07-26T07:26:23.090Z,3.72
2018-07-26T07:28:52.287Z,4.10
2018-07-26T07:31:22.226Z,3.67
2018-07-26T07:33:53.770Z,3.62
2018-07-26T07:36:25.129Z,4.40
2018-07-26T07:39:00.189Z,3.90
2018-07-26T07:41:31.978Z,4.10
2018-07-26T07:44:10.041Z,3.50
2018-07-26T07:46:39.611Z,3.92
2018-07-26T07:49:10.902Z,3.77
2018-07-26T07:51:41.874Z,3.60
2018-07-26T07:54:13.088Z,4.03
2018-07-26T07:56:44.125Z,4.25
2018-07-26T07:59:14.859Z,4.20
2018-07-26T08:01:46.260Z,4.40
2018-07-26T08:04:17.371Z,4.28
2018-07-26T08:06:48.828Z,4.47
2018-07-26T08:09:24.621Z,4.47
2018-07-26T08:11:56.627Z,4.67
2018-07-26T08:14:26.872Z,3.90
2018-07-26T08:16:59.415Z,3.98
2018-07-26T08:19:30.427Z,4.42
2018-07-26T08:21:58.971Z,3.92
2018-07-26T08:24:27.503Z,4.08
2018-07-26T08:26:56.108Z,3.52
2018-07-26T08:29:24.607Z,3.70
2018-07-26T08:31:53.212Z,3.20
2018-07-26T08:34:21.679Z,4.17
2018-07-26T08:36:50.320Z,3.70
2018-07-26T08:39:18.861Z,3.67
2018-07-26T08:41:47.923Z,3.52
2018-07-26T08:44:18.113Z,3.90
2018-07-26T08:46:47.243Z,3.47
2018-07-26T08:49:15.858Z,3.62
2018-07-26T08:51:44.402Z,3.70
2018-07-26T08:54:13.113Z,3.95
2018-07-26T08:56:41.590Z,3.45
2018-07-26T08:59:11.019Z,3.92
2018-07-26T09:01:39.683Z,3.70
2018-07-26T09:04:08.175Z,3.40
2018-07-26T09:06:42.665Z,4.15
2018-07-26T09:09:12.870Z,3.37
2018-07-26T09:11:41.521Z,3.85
2018-07-26T09:14:10.281Z,4.05
2018-07-26T09:16:38.684Z,3.25
2018-07-26T09:19:07.899Z,3.70
2018-07-26T09:21:36.647Z,3.47
2018-07-26T09:24:05.115Z,3.30
2018-07-26T09:26:33.609Z,3.60
2018-07-26T09:29:02.402Z,3.35
2018-07-26T09:31:30.905Z,3.45
2018-07-26T09:33:59.469Z,3.10
2018-07-26T09:36:27.932Z,3.72
2018-07-26T09:38:56.664Z,3.62
2018-07-26T09:41:25.313Z,3.05
2018-07-26T09:43:53.888Z,3.27
2018-07-26T09:46:22.434Z,3.27
2018-07-26T09:48:51.329Z,4.45
2018-07-26T09:51:19.964Z,3.00
2018-07-26T09:53:48.651Z,2.87
2018-07-26T09:56:17.255Z,3.20
2018-07-26T09:58:45.737Z,2.90
2018-07-26T10:01:19.621Z,3.45
2018-07-26T10:03:48.125Z,2.87
2018-07-26T10:06:16.631Z,2.98
2018-07-26T10:08:45.389Z,2.85
2018-07-26T10:11:13.874Z,3.05
2018-07-26T10:13:42.351Z,4.25
2018-07-26T10:16:10.771Z,3.10
2018-07-26T10:18:39.347Z,3.45
2018-07-26T10:21:07.917Z,2.75
2018-07-26T10:23:36.475Z,2.90
2018-07-26T10:26:05.609Z,3.83
2018-07-26T10:28:35.279Z,4.08
2018-07-26T10:31:03.952Z,3.33
2018-07-26T10:33:34.071Z,2.85
2018-07-26T10:36:03.077Z,3.17
2018-07-26T10:38:31.765Z,3.00
2018-07-26T10:41:00.437Z,3.15
2018-07-26T10:43:29.734Z,2.90
2018-07-26T10:45:58.160Z,3.02
2018-07-26T10:48:26.649Z,2.85
2018-07-26T10:50:55.260Z,2.65
2018-07-26T10:53:23.997Z,4.67
2018-07-26T10:55:52.568Z,2.92
2018-07-26T10:58:21.105Z,3.02
2018-07-26T11:00:49.624Z,3.20
2018-07-26T11:03:18.336Z,3.10
2018-07-26T11:05:46.899Z,3.02
2018-07-26T11:08:15.698Z,3.58
2018-07-26T11:10:44.239Z,3.10
2018-07-26T11:13:12.875Z,4.40
2018-07-26T11:15:41.746Z,3.37
2018-07-26T11:18:10.371Z,3.00
2018-07-26T11:20:39.018Z,3.22
2018-07-26T11:23:08.116Z,3.27
2018-07-26T11:25:36.601Z,2.98
2018-07-26T11:28:07.671Z,3.20
2018-07-26T11:30:37.134Z,3.05
2018-07-26T11:33:05.792Z,2.95
2018-07-26T11:35:34.259Z,2.87
2018-07-26T11:38:02.743Z,3.30
2018-07-26T11:40:31.372Z,3.22
2018-07-26T11:42:59.911Z,3.00
2018-07-26T11:45:28.462Z,3.17
2018-07-26T11:48:06.405Z,3.12
2018-07-26T11:50:34.994Z,3.35
2018-07-26T11:53:03.415Z,3.30
2018-07-26T11:58:13.220Z,3.10
2018-07-26T12:00:41.697Z,2.90
2018-07-26T12:03:11.041Z,3.25
2018-07-26T12:05:39.585Z,3.00
2018-07-26T12:08:08.267Z,3.08
2018-07-26T12:10:36.705Z,3.10
2018-07-26T12:13:05.190Z,3.50
2018-07-26T12:15:33.595Z,4.35
2018-07-26T12:18:20.790Z,5.37
2018-07-26T12:20:49.174Z,3.45
2018-07-26T12:23:17.594Z,3.45
2018-07-26T12:25:46.221Z,5.12
2018-07-26T12:28:14.620Z,3.70
2018-07-26T12:33:10.928Z,3.35
2018-07-26T13:12:44.602Z,3.85
2018-07-26T13:15:13.115Z,4.03
2018-07-26T13:17:46.793Z,3.80
2018-07-26T13:20:15.758Z,4.20
2018-07-26T13:22:44.212Z,4.05
2018-07-26T13:25:12.721Z,4.00
2018-07-26T13:27:41.328Z,3.90
2018-07-26T13:30:10.224Z,4.00
2018-07-26T13:32:39.320Z,3.80
2018-07-26T13:35:07.792Z,3.70
2018-07-26T13:37:36.232Z,3.50
2018-07-26T13:40:05.315Z,3.58
2018-07-26T13:42:34.264Z,3.90
2018-07-26T13:45:02.789Z,4.10
2018-07-26T13:47:31.538Z,3.80
2018-07-26T13:50:00.193Z,4.17
2018-07-26T13:52:28.978Z,4.77
2018-07-26T13:54:57.523Z,3.80
2018-07-26T13:57:26.205Z,4.10
2018-07-26T13:59:54.647Z,4.00
2018-07-26T14:02:23.272Z,4.07
2018-07-26T14:04:51.862Z,3.80
2018-07-26T14:07:20.765Z,3.75
2018-07-26T14:09:49.641Z,3.85
2018-07-26T14:12:18.592Z,3.70
2018-07-26T14:14:47.205Z,3.72
2018-07-26T14:17:15.789Z,4.10
2018-07-26T14:19:44.482Z,3.65
2018-07-26T14:22:13.119Z,4.10
2018-07-26T14:24:41.682Z,3.67
2018-07-26T14:27:10.452Z,3.50
2018-07-26T14:29:39.180Z,5.35
2018-07-26T14:32:07.702Z,4.60
2018-07-26T14:35:13.965Z,4.33
2018-07-26T14:37:42.716Z,4.70
2018-07-26T14:40:11.252Z,3.70
2018-07-26T14:42:39.983Z,4.00
2018-07-26T14:45:08.540Z,4.05
2018-07-26T14:47:37.190Z,3.87
2018-07-26T14:50:06.185Z,3.70
2018-07-26T14:52:34.664Z,4.37
2018-07-26T14:55:03.188Z,3.92
2018-07-26T14:57:31.944Z,3.90
2018-07-26T15:00:00.501Z,4.37
2018-07-26T15:02:29.168Z,4.35
2018-07-26T15:04:57.756Z,4.10
2018-07-26T15:07:27.126Z,3.77
2018-07-26T15:09:55.719Z,3.95
2018-07-26T15:12:24.230Z,4.05
2018-07-26T15:14:53.680Z,4.50
2018-07-26T15:17:22.340Z,4.55
2018-07-26T15:19:51.694Z,4.50
2018-07-26T15:22:20.267Z,4.12
2018-07-26T15:24:48.803Z,4.67
2018-07-26T15:27:17.207Z,4.15
2018-07-26T15:29:45.711Z,4.55
2018-07-26T15:32:14.566Z,3.77
2018-07-26T15:34:42.965Z,3.92
2018-07-26T15:37:11.434Z,3.80
2018-07-26T15:39:40.006Z,4.50
2018-07-26T15:42:08.593Z,4.22
2018-07-26T15:44:37.189Z,4.67
2018-07-26T15:47:05.795Z,4.40
2018-07-26T15:49:34.514Z,4.50
2018-07-26T15:52:03.227Z,4.17
2018-07-26T15:54:31.714Z,4.58
2018-07-26T15:57:00.357Z,4.55
2018-07-26T15:59:28.912Z,4.70
2018-07-26T16:01:57.721Z,5.03
2018-07-26T16:04:26.360Z,4.60
2018-07-26T16:06:54.932Z,4.67
2018-07-26T16:09:23.771Z,4.42
2018-07-26T16:11:52.298Z,4.30
2018-07-26T16:14:21.054Z,4.42
2018-07-26T16:16:49.669Z,4.00
2018-07-26T16:19:23.479Z,3.92
2018-07-26T16:21:52.077Z,4.30
2018-07-26T16:24:20.604Z,4.40
2018-07-26T16:26:49.263Z,4.40
2018-07-26T16:29:28.513Z,4.70
2018-07-26T16:31:57.425Z,4.80
2018-07-26T16:34:26.016Z,4.47
2018-07-26T16:36:55.390Z,4.42
2018-07-26T16:39:24.040Z,4.33
2018-07-26T16:41:53.065Z,5.08
2018-07-26T16:44:22.133Z,4.28
2018-07-26T16:46:50.903Z,4.50
2018-07-26T16:49:24.556Z,4.78
2018-07-26T16:51:53.176Z,4.70
2018-07-26T16:54:22.121Z,4.80
2018-07-26T16:56:50.793Z,4.85
2018-07-26T16:59:24.521Z,4.92
2018-07-26T17:01:53.298Z,4.08
2018-07-26T17:04:21.940Z,4.30
2018-07-26T17:06:51.548Z,4.45
2018-07-26T17:09:20.584Z,4.33
2018-07-26T17:11:49.392Z,4.55
2018-07-26T17:14:19.559Z,4.22
2018-07-26T17:16:49.397Z,5.00
2018-07-26T17:19:19.820Z,4.65
2018-07-26T17:21:48.619Z,4.95
2018-07-26T17:24:18.710Z,4.75
2018-07-26T17:26:47.380Z,5.03
2018-07-26T17:29:15.963Z,4.80
2018-07-26T17:31:44.764Z,4.50
2018-07-26T17:34:13.467Z,4.90
2018-07-26T17:36:42.472Z,4.85
2018-07-26T17:39:12.188Z,5.58
2018-07-26T17:41:40.864Z,5.17
2018-07-26T17:44:09.552Z,4.87
2018-07-26T17:46:38.374Z,4.95
2018-07-26T17:49:06.996Z,5.03
2018-07-26T17:51:35.544Z,5.00
2018-07-26T17:54:04.093Z,5.17
2018-07-26T17:56:33.251Z,4.97
2018-07-26T17:59:01.965Z,4.33
2018-07-26T18:01:30.621Z,4.58
2018-07-26T18:03:59.216Z,5.15
2018-07-26T18:06:27.917Z,4.80
2018-07-26T18:08:56.632Z,4.90
2018-07-26T18:11:25.228Z,4.75
2018-07-26T18:13:54.517Z,4.85
2018-07-26T18:16:23.771Z,4.58
2018-07-26T18:18:52.675Z,4.92
2018-07-26T18:21:21.931Z,4.92
2018-07-26T18:23:51.711Z,4.83
2018-07-26T18:26:24.802Z,4.90
2018-07-26T18:31:47.080Z,4.83
2018-07-26T18:34:16.107Z,5.35
2018-07-26T18:36:45.041Z,6.92
2018-07-26T18:39:19.725Z,7.12
2018-07-26T18:41:48.693Z,5.65
2018-07-26T18:44:18.209Z,5.25
2018-07-26T18:46:48.891Z,4.92
2018-07-26T18:49:22.668Z,4.83
2018-07-26T18:51:52.325Z,4.83
2018-07-26T18:54:21.148Z,4.87
2018-07-26T18:56:50.213Z,5.22
2018-07-26T18:59:28.794Z,5.40
2018-07-26T19:01:57.748Z,5.60
2018-07-26T19:04:27.605Z,5.85
2018-07-26T19:06:56.357Z,7.35
2018-07-26T19:09:25.552Z,8.15
2018-07-26T19:11:54.259Z,6.20
2018-07-26T19:14:25.774Z,6.15
2018-07-26T19:16:55.053Z,5.72
2018-07-26T19:19:29.289Z,5.50
2018-07-26T19:21:58.248Z,5.28
2018-07-26T19:24:26.895Z,6.55
2018-07-26T19:26:55.453Z,5.22
2018-07-26T19:29:23.995Z,4.90
2018-07-26T19:31:53.537Z,5.70
2018-07-26T19:34:22.535Z,6.20
2018-07-26T19:36:52.050Z,5.08
2018-07-26T19:39:21.199Z,5.20
2018-07-26T19:41:50.263Z,4.67
2018-07-26T19:44:20.099Z,5.05
2018-07-26T19:46:49.146Z,5.30
2018-07-26T19:49:18.081Z,4.97
2018-07-26T19:51:48.869Z,4.78
2018-07-26T19:54:19.193Z,5.47
2018-07-26T19:56:50.346Z,5.35
2018-07-26T19:59:19.575Z,4.50
2018-07-26T20:01:48.285Z,5.03
2018-07-26T20:04:17.589Z,4.90
2018-07-26T20:06:46.525Z,5.60
2018-07-26T20:09:20.295Z,4.92
2018-07-26T20:11:49.356Z,5.22
2018-07-26T20:14:19.726Z,5.17
2018-07-26T20:16:49.473Z,4.87
2018-07-26T20:19:19.374Z,4.83
2018-07-26T20:21:49.197Z,5.50
2018-07-26T20:24:18.268Z,4.92
2018-07-26T20:26:48.696Z,5.17
2018-07-26T20:29:24.113Z,5.20
2018-07-26T20:31:55.649Z,5.10
2018-07-26T20:34:29.065Z,5.08
2018-07-26T20:36:57.865Z,5.03
2018-07-26T20:39:27.641Z,4.83
2018-07-26T20:41:57.120Z,5.37
2018-07-26T20:44:26.556Z,5.30
2018-07-26T20:46:56.787Z,5.78
2018-07-26T20:49:31.243Z,5.33
2018-07-26T20:52:00.243Z,5.25
2018-07-26T20:54:32.599Z,4.78
2018-07-26T20:57:03.697Z,5.58
2018-07-26T20:59:33.095Z,5.00
2018-07-26T21:02:04.387Z,5.40
2018-07-26T21:04:33.215Z,5.08
2018-07-26T21:07:02.236Z,5.33
2018-07-26T21:09:30.952Z,4.83
2018-07-26T21:12:00.989Z,5.08
2018-07-26T21:14:31.132Z,5.05
2018-07-26T21:17:00.172Z,5.78
2018-07-26T21:19:30.497Z,6.17
2018-07-26T21:22:00.769Z,5.50
2018-07-26T21:24:29.927Z,5.37
2018-07-26T21:26:59.551Z,5.80
2018-07-26T21:29:29.731Z,5.55
2018-07-26T21:31:58.647Z,5.08
2018-07-26T21:34:27.567Z,5.35
2018-07-26T21:36:56.849Z,5.42
2018-07-26T21:39:30.881Z,5.40
2018-07-26T21:41:59.786Z,5.42
2018-07-26T21:44:28.817Z,5.28
2018-07-26T21:46:57.695Z,5.60
2018-07-26T21:49:31.908Z,5.67
2018-07-26T21:52:01.015Z,4.85
2018-07-26T21:54:29.823Z,5.87
2018-07-26T21:56:58.711Z,5.45
2018-07-26T21:59:32.619Z,5.87
2018-07-26T22:02:01.820Z,5.83
2018-07-26T22:04:30.881Z,5.25
2018-07-26T22:07:05.269Z,5.37
2018-07-26T22:09:35.549Z,5.50
2018-07-26T22:24:14.583Z,5.40
2018-07-26T22:32:41.117Z,5.58
2018-07-26T22:35:10.225Z,5.10
2018-07-26T22:37:39.029Z,5.42
2018-07-26T22:40:08.013Z,5.45
2018-07-26T22:42:38.687Z,5.08
2018-07-26T22:45:08.123Z,4.80
2018-07-26T22:47:37.344Z,5.53
2018-07-26T22:50:07.090Z,5.22
2018-07-26T22:52:37.235Z,5.65
2018-07-26T22:55:06.253Z,5.55
2018-07-26T22:57:36.263Z,5.30
2018-07-26T23:00:15.153Z,5.30
2018-07-26T23:02:44.986Z,5.87
2018-07-26T23:05:15.758Z,5.62
2018-07-26T23:08:09.010Z,5.30
2018-07-26T23:16:38.761Z,5.65
2018-07-26T23:19:09.148Z,5.35
2018-07-26T23:21:45.511Z,5.67
2018-07-26T23:24:24.301Z,6.00
2018-07-26T23:29:52.518Z,5.95
2018-07-26T23:35:00.777Z,6.30
2018-07-26T23:37:30.628Z,6.10
2018-07-26T23:40:00.693Z,6.65
2018-07-26T23:42:32.347Z,6.65
2018-07-26T23:45:07.192Z,6.50
2018-07-26T23:47:37.854Z,6.65
2018-07-26T23:50:21.628Z,6.12
2018-07-26T23:53:00.156Z,6.60
2018-07-26T23:55:33.988Z,6.67
2018-07-26T23:58:05.299Z,5.80
